Aérodrome :
LOGIN :

S'inscrire | Disclaimer

   EN    FR    IT 

 










Légende :    VFR   VFR Marginal   IFR   IFR Intensif   IFR Très Intensif
Visi : 
Plafond : 
>= 8 km
>= 3000ft
5 à 8 km
1000 à 3000 ft
1500m à 5 km
500 à 1000 ft
800 à 1500m
200 à 500 ft
< 800m
< 200 ft
Symboles :   Orages  Brouillard  Fortes neiges  Fortes précipitations  Vent > 20 kt
SIGMETs :   Divers  Orages  Givrage  Turbulence  Onde Orograph.  Cendres Volcan.







- Altitude de l'aérodrome : 297 ft
- Code IATA : UIP
- Voir les cartes d'approche


LFRQ - Quimper Pluguffan

DERNIER METAR :
  • 200100Z AUTO 32004KT 1500 1400 R28/1900U BR VV/// 18/18 Q1024

METARs EXPIRÉS :
  • 200030Z AUTO 31003KT 280V340 0900 R28/1200D FG VV/// 18/18 Q1024
  • 200000Z AUTO 31004KT 280V350 1600 BR VV/// 18/18 Q1024
  • 192330Z AUTO 31004KT 1300 R28/1700D BR VV/// 18/18 Q1024
  • 192300Z AUTO 30004KT 1100 R28/1400U BR VV/// 18/18 Q1024
  • 192230Z AUTO VRB02KT 1400 1200 R28/1800N BR VV/// 18/18 Q1024

TAF TAF LFRQ
Valide du 19 à 18h jusqu'au 20 à 18h UTC


191700Z 1918/2018 25007KT 9999 BKN008
BECMG 1918/1921 3000 DZ OVC004
PROB40
TEMPO 1922/2006 0300 DZ FG VV///
BECMG 2009/2011 9999 NSW BKN015
Pas de NOTAMs connus pour ce terrain.



MET'MAP, la Météo Aéronautique d'un coup d'oeil ! - Copyright ORBIFLY Décembre 2007 - Disclaimer

ORBIFLY MET'MAP TEAM :

Programmation & Développement : Alexandra Zaïnal
Conception & Développement : Baudouin d'Aumeries
Co-Programmation & Développement : Marc-Olivier Méhu
Soutien technique & logistique : Manuel Goepfert

Contact : metmap@orbifly.com




SOURCES & CREDITS :

   NOAA